Aviation Digital Data Service (ADDS)

Output produced by METARs form (0008 UTC 19 August 2019)
found at http://www.aviationweather.gov/metar/data/
 
METAR text: MKJP 190000Z 12012KT 9999 FEW020 FEW022CB 29/22 Q1013
Conditions at: MKJP (KINGSTON/NORMAN , JM) observed 0000 UTC 19 August 2019
Temperature: 29.0°C (84°F)
Dewpoint: 22.0°C (72°F) [RH = 66%]
Pressure (altimeter): 29.91 inches Hg (1013.0 mb)
Winds: from the ESE (120 degrees) at 14 MPH (12 knots; 6.2 m/s)
Visibility: 6 or more miles (10+ km)
Ceiling: at least 12,000 feet AGL
Clouds: few clouds at 2000 feet AGL
few clouds at 2200 feet AGL
Weather: no significant weather observed at this time

METAR text: MKJP 182300Z 13016KT 9999 FEW018 SCT020CB 29/22 Q1013
Conditions at: MKJP (KINGSTON/NORMAN , JM) observed 2300 UTC 18 August 2019
Temperature: 29.0°C (84°F)
Dewpoint: 22.0°C (72°F) [RH = 66%]
Pressure (altimeter): 29.91 inches Hg (1013.0 mb)
Winds: from the SE (130 degrees) at 18 MPH (16 knots; 8.2 m/s)
Visibility: 6 or more miles (10+ km)
Ceiling: at least 12,000 feet AGL
Clouds: few clouds at 1800 feet AGL
scattered clouds at 2000 feet AGL
Weather: no significant weather observed at this time

METAR text: MKJP 182200Z 11011KT 9999 FEW018 SCT020CB BKN090 30/23 Q1012
Conditions at: MKJP (KINGSTON/NORMAN , JM) observed 2200 UTC 18 August 2019
Temperature: 30.0°C (86°F)
Dewpoint: 23.0°C (73°F) [RH = 66%]
Pressure (altimeter): 29.88 inches Hg (1012.0 mb)
Winds: from the ESE (110 degrees) at 13 MPH (11 knots; 5.7 m/s)
Visibility: 6 or more miles (10+ km)
Ceiling: 9000 feet AGL
Clouds: few clouds at 1800 feet AGL
scattered clouds at 2000 feet AGL
broken clouds at 9000 feet AGL
Weather: no significant weather observed at this time

METAR text: MKJP 182100Z 14016KT 9999 VCSH FEW016 SCT020CB BKN090 30/23 Q1013 RETS
Conditions at: MKJP (KINGSTON/NORMAN , JM) observed 2100 UTC 18 August 2019
Temperature: 30.0°C (86°F)
Dewpoint: 23.0°C (73°F) [RH = 66%]
Pressure (altimeter): 29.91 inches Hg (1013.0 mb)
Winds: from the SE (140 degrees) at 18 MPH (16 knots; 8.2 m/s)
Visibility: 6 or more miles (10+ km)
Ceiling: 9000 feet AGL
Clouds: few clouds at 1600 feet AGL
scattered clouds at 2000 feet AGL
broken clouds at 9000 feet AGL
Weather: VCSH  (showers in vicinity)

METAR text: MKJP 182033Z 14019KT 9999 FEW018 FEW020CB BKN090 30/23 Q1013
Conditions at: MKJP (KINGSTON/NORMAN , JM) observed 2033 UTC 18 August 2019
Temperature: 30.0°C (86°F)
Dewpoint: 23.0°C (73°F) [RH = 66%]
Pressure (altimeter): 29.91 inches Hg (1013.0 mb)
Winds: from the SE (140 degrees) at 22 MPH (19 knots; 9.8 m/s)
Visibility: 6 or more miles (10+ km)
Ceiling: 9000 feet AGL
Clouds: few clouds at 1800 feet AGL
few clouds at 2000 feet AGL
broken clouds at 9000 feet AGL
Weather: no significant weather observed at this time

METAR text: MKJP 182000Z 12013KT 9999 TS FEW018 SCT020 30/23 Q1013
Conditions at: MKJP (KINGSTON/NORMAN , JM) observed 2000 UTC 18 August 2019
Temperature: 30.0°C (86°F)
Dewpoint: 23.0°C (73°F) [RH = 66%]
Pressure (altimeter): 29.91 inches Hg (1013.0 mb)
Winds: from the ESE (120 degrees) at 15 MPH (13 knots; 6.7 m/s)
Visibility: 6 or more miles (10+ km)
Ceiling: at least 12,000 feet AGL
Clouds: few clouds at 1800 feet AGL
scattered clouds at 2000 feet AGL
Weather: TS  (thunderstorm)

METAR text: MKJP 181900Z 14021KT 9999 VCSH FEW018 SCT020CB BKN090 30/23 Q1013
Conditions at: MKJP (KINGSTON/NORMAN , JM) observed 1900 UTC 18 August 2019
Temperature: 30.0°C (86°F)
Dewpoint: 23.0°C (73°F) [RH = 66%]
Pressure (altimeter): 29.91 inches Hg (1013.0 mb)
Winds: from the SE (140 degrees) at 24 MPH (21 knots; 10.8 m/s)
Visibility: 6 or more miles (10+ km)
Ceiling: 9000 feet AGL
Clouds: few clouds at 1800 feet AGL
scattered clouds at 2000 feet AGL
broken clouds at 9000 feet AGL
Weather: VCSH  (showers in vicinity)

METAR text: MKJP 181800Z 15020KT 9999 FEW018 FEW020CB BKN090 31/22 Q1014
Conditions at: MKJP (KINGSTON/NORMAN , JM) observed 1800 UTC 18 August 2019
Temperature: 31.0°C (88°F)
Dewpoint: 22.0°C (72°F) [RH = 59%]
Pressure (altimeter): 29.94 inches Hg (1014.0 mb)
Winds: from the SSE (150 degrees) at 23 MPH (20 knots; 10.3 m/s)
Visibility: 6 or more miles (10+ km)
Ceiling: 9000 feet AGL
Clouds: few clouds at 1800 feet AGL
few clouds at 2000 feet AGL
broken clouds at 9000 feet AGL
Weather: no significant weather observed at this time

METAR text: MKJP 181700Z 12015KT 9999 FEW016 FEW020CB BKN090 30/24 Q1014 RETS
Conditions at: MKJP (KINGSTON/NORMAN , JM) observed 1700 UTC 18 August 2019
Temperature: 30.0°C (86°F)
Dewpoint: 24.0°C (75°F) [RH = 70%]
Pressure (altimeter): 29.94 inches Hg (1014.0 mb)
Winds: from the ESE (120 degrees) at 17 MPH (15 knots; 7.7 m/s)
Visibility: 6 or more miles (10+ km)
Ceiling: 9000 feet AGL
Clouds: few clouds at 1600 feet AGL
few clouds at 2000 feet AGL
broken clouds at 9000 feet AGL
Weather: no significant weather observed at this time

METAR text: MKJP 181636Z 15017KT 9999 -SHRA FEW016 FEW020CB BKN090 28/24 Q1015
Conditions at: MKJP (KINGSTON/NORMAN , JM) observed 1636 UTC 18 August 2019
Temperature: 28.0°C (82°F)
Dewpoint: 24.0°C (75°F) [RH = 79%]
Pressure (altimeter): 29.97 inches Hg (1015.0 mb)
Winds: from the SSE (150 degrees) at 20 MPH (17 knots; 8.7 m/s)
Visibility: 6 or more miles (10+ km)
Ceiling: 9000 feet AGL
Clouds: few clouds at 1600 feet AGL
few clouds at 2000 feet AGL
broken clouds at 9000 feet AGL
Weather: -SHRA  (light rain showers)

METAR text: MKJP 181615Z 12021G31KT 1500 -TSRA VCSH BKN018 SCT020CB 26/22 Q1015
Conditions at: MKJP (KINGSTON/NORMAN , JM) observed 1615 UTC 18 August 2019
Temperature: 26.0°C (79°F)
Dewpoint: 22.0°C (72°F) [RH = 79%]
Pressure (altimeter): 29.97 inches Hg (1015.0 mb)
Winds: from the ESE (120 degrees) at 24 MPH (21 knots; 10.8 m/s)
gusting to 36 MPH (31 knots; 15.9 m/s)
Visibility: 0.93 miles (1.50 km)
Ceiling: 1800 feet AGL
Clouds: broken clouds at 1800 feet AGL
scattered clouds at 2000 feet AGL
Weather: -TSRA VCSH  (light rain associated with thunderstorm(s), showers in vicinity)

METAR text: MKJP 181600Z 13014KT 9999 VCSH SCT018 FEW022CB 31/23 Q1015
Conditions at: MKJP (KINGSTON/NORMAN , JM) observed 1600 UTC 18 August 2019
Temperature: 31.0°C (88°F)
Dewpoint: 23.0°C (73°F) [RH = 63%]
Pressure (altimeter): 29.97 inches Hg (1015.0 mb)
Winds: from the SE (130 degrees) at 16 MPH (14 knots; 7.2 m/s)
Visibility: 6 or more miles (10+ km)
Ceiling: at least 12,000 feet AGL
Clouds: scattered clouds at 1800 feet AGL
few clouds at 2200 feet AGL
Weather: VCSH  (showers in vicinity)

METAR text: MKJP 181500Z 12012KT 9999 FEW018 FEW022CB 30/22 Q1014
Conditions at: MKJP (KINGSTON/NORMAN , JM) observed 1500 UTC 18 August 2019
Temperature: 30.0°C (86°F)
Dewpoint: 22.0°C (72°F) [RH = 62%]
Pressure (altimeter): 29.94 inches Hg (1014.0 mb)
Winds: from the ESE (120 degrees) at 14 MPH (12 knots; 6.2 m/s)
Visibility: 6 or more miles (10+ km)
Ceiling: at least 12,000 feet AGL
Clouds: few clouds at 1800 feet AGL
few clouds at 2200 feet AGL
Weather: no significant weather observed at this time

METAR text: MKJP 181400Z 11007KT 9999 FEW018 FEW022CB 30/22 Q1014
Conditions at: MKJP (KINGSTON/NORMAN , JM) observed 1400 UTC 18 August 2019
Temperature: 30.0°C (86°F)
Dewpoint: 22.0°C (72°F) [RH = 62%]
Pressure (altimeter): 29.94 inches Hg (1014.0 mb)
Winds: from the ESE (110 degrees) at 8 MPH (7 knots; 3.6 m/s)
Visibility: 6 or more miles (10+ km)
Ceiling: at least 12,000 feet AGL
Clouds: few clouds at 1800 feet AGL
few clouds at 2200 feet AGL
Weather: no significant weather observed at this time

METAR text: MKJP 181300Z 19003KT 9999 FEW020 SCT022CB 29/23 Q1014
Conditions at: MKJP (KINGSTON/NORMAN , JM) observed 1300 UTC 18 August 2019
Temperature: 29.0°C (84°F)
Dewpoint: 23.0°C (73°F) [RH = 70%]
Pressure (altimeter): 29.94 inches Hg (1014.0 mb)
Winds: from the S (190 degrees) at 3 MPH (3 knots; 1.5 m/s)
Visibility: 6 or more miles (10+ km)
Ceiling: at least 12,000 feet AGL
Clouds: few clouds at 2000 feet AGL
scattered clouds at 2200 feet AGL
Weather: no significant weather observed at this time

METAR text: MKJP 181200Z VRB02KT 9999 -SHRA SCT020 SCT022CB 28/23 Q1014 RETS
Conditions at: MKJP (KINGSTON/NORMAN , JM) observed 1200 UTC 18 August 2019
Temperature: 28.0°C (82°F)
Dewpoint: 23.0°C (73°F) [RH = 74%]
Pressure (altimeter): 29.94 inches Hg (1014.0 mb)
Winds: variable direction winds at 2 MPH (2 knots; 1.0 m/s)
Visibility: 6 or more miles (10+ km)
Ceiling: at least 12,000 feet AGL
Clouds: scattered clouds at 2000 feet AGL
scattered clouds at 2200 feet AGL
Weather: -SHRA  (light rain showers)

METAR text: MKJP 181108Z VRB02KT 9999 TS FEW020 FEW022CB 27/21 Q1014
Conditions at: MKJP (KINGSTON/NORMAN , JM) observed 1108 UTC 18 August 2019
Temperature: 27.0°C (81°F)
Dewpoint: 21.0°C (70°F) [RH = 70%]
Pressure (altimeter): 29.94 inches Hg (1014.0 mb)
Winds: variable direction winds at 2 MPH (2 knots; 1.0 m/s)
Visibility: 6 or more miles (10+ km)
Ceiling: at least 12,000 feet AGL
Clouds: few clouds at 2000 feet AGL
few clouds at 2200 feet AGL
Weather: TS  (thunderstorm)

METAR text: MKJP 181100Z 34004KT 9999 FEW020 FEW022CB 27/21 Q1013
Conditions at: MKJP (KINGSTON/NORMAN , JM) observed 1100 UTC 18 August 2019
Temperature: 27.0°C (81°F)
Dewpoint: 21.0°C (70°F) [RH = 70%]
Pressure (altimeter): 29.91 inches Hg (1013.0 mb)
Winds: from the NNW (340 degrees) at 5 MPH (4 knots; 2.1 m/s)
Visibility: 6 or more miles (10+ km)
Ceiling: at least 12,000 feet AGL
Clouds: few clouds at 2000 feet AGL
few clouds at 2200 feet AGL
Weather: no significant weather observed at this time

METAR text: MKJP 181000Z 32003KT 9999 VCTS FEW022CB 27/21 Q1013
Conditions at: MKJP (KINGSTON/NORMAN , JM) observed 1000 UTC 18 August 2019
Temperature: 27.0°C (81°F)
Dewpoint: 21.0°C (70°F) [RH = 70%]
Pressure (altimeter): 29.91 inches Hg (1013.0 mb)
Winds: from the NW (320 degrees) at 3 MPH (3 knots; 1.5 m/s)
Visibility: 6 or more miles (10+ km)
Ceiling: at least 12,000 feet AGL
Clouds: few clouds at 2200 feet AGL
Weather: VCTS  (thunderstorm in vicinity)

METAR text: MKJP 180900Z VRB02KT 9999 VCTS FEW022CB 27/23 Q1013
Conditions at: MKJP (KINGSTON/NORMAN , JM) observed 0900 UTC 18 August 2019
Temperature: 27.0°C (81°F)
Dewpoint: 23.0°C (73°F) [RH = 79%]
Pressure (altimeter): 29.91 inches Hg (1013.0 mb)
Winds: variable direction winds at 2 MPH (2 knots; 1.0 m/s)
Visibility: 6 or more miles (10+ km)
Ceiling: at least 12,000 feet AGL
Clouds: few clouds at 2200 feet AGL
Weather: VCTS  (thunderstorm in vicinity)

METAR text: MKJP 180800Z VRB02KT 9999 VCTS SCT022CB 28/23 Q1014
Conditions at: MKJP (KINGSTON/NORMAN , JM) observed 0800 UTC 18 August 2019
Temperature: 28.0°C (82°F)
Dewpoint: 23.0°C (73°F) [RH = 74%]
Pressure (altimeter): 29.94 inches Hg (1014.0 mb)
Winds: variable direction winds at 2 MPH (2 knots; 1.0 m/s)
Visibility: 6 or more miles (10+ km)
Ceiling: at least 12,000 feet AGL
Clouds: scattered clouds at 2200 feet AGL
Weather: VCTS  (thunderstorm in vicinity)

METAR text: MKJP 180700Z 26003KT 9999 VCTS SCT022CB 28/23 Q1014
Conditions at: MKJP (KINGSTON/NORMAN , JM) observed 0700 UTC 18 August 2019
Temperature: 28.0°C (82°F)
Dewpoint: 23.0°C (73°F) [RH = 74%]
Pressure (altimeter): 29.94 inches Hg (1014.0 mb)
Winds: from the W (260 degrees) at 3 MPH (3 knots; 1.5 m/s)
Visibility: 6 or more miles (10+ km)
Ceiling: at least 12,000 feet AGL
Clouds: scattered clouds at 2200 feet AGL
Weather: VCTS  (thunderstorm in vicinity)

METAR text: MKJP 180600Z 07004KT 9999 VCTS SCT022CB 28/23 Q1015
Conditions at: MKJP (KINGSTON/NORMAN , JM) observed 0600 UTC 18 August 2019
Temperature: 28.0°C (82°F)
Dewpoint: 23.0°C (73°F) [RH = 74%]
Pressure (altimeter): 29.97 inches Hg (1015.0 mb)
Winds: from the ENE (70 degrees) at 5 MPH (4 knots; 2.1 m/s)
Visibility: 6 or more miles (10+ km)
Ceiling: at least 12,000 feet AGL
Clouds: scattered clouds at 2200 feet AGL
Weather: VCTS  (thunderstorm in vicinity)

METAR text: MKJP 180500Z VRB02KT 9999 VCTS FEW022CB 28/23 Q1014
Conditions at: MKJP (KINGSTON/NORMAN , JM) observed 0500 UTC 18 August 2019
Temperature: 28.0°C (82°F)
Dewpoint: 23.0°C (73°F) [RH = 74%]
Pressure (altimeter): 29.94 inches Hg (1014.0 mb)
Winds: variable direction winds at 2 MPH (2 knots; 1.0 m/s)
Visibility: 6 or more miles (10+ km)
Ceiling: at least 12,000 feet AGL
Clouds: few clouds at 2200 feet AGL
Weather: VCTS  (thunderstorm in vicinity)

METAR text: MKJP 180400Z 34005KT 9999 FEW022 28/22 Q1015
Conditions at: MKJP (KINGSTON/NORMAN , JM) observed 0400 UTC 18 August 2019
Temperature: 28.0°C (82°F)
Dewpoint: 22.0°C (72°F) [RH = 70%]
Pressure (altimeter): 29.97 inches Hg (1015.0 mb)
Winds: from the NNW (340 degrees) at 6 MPH (5 knots; 2.6 m/s)
Visibility: 6 or more miles (10+ km)
Ceiling: at least 12,000 feet AGL
Clouds: few clouds at 2200 feet AGL
Weather: no significant weather observed at this time

METAR text: MKJP 180300Z 34008KT 9999 FEW022 29/22 Q1015
Conditions at: MKJP (KINGSTON/NORMAN , JM) observed 0300 UTC 18 August 2019
Temperature: 29.0°C (84°F)
Dewpoint: 22.0°C (72°F) [RH = 66%]
Pressure (altimeter): 29.97 inches Hg (1015.0 mb)
Winds: from the NNW (340 degrees) at 9 MPH (8 knots; 4.1 m/s)
Visibility: 6 or more miles (10+ km)
Ceiling: at least 12,000 feet AGL
Clouds: few clouds at 2200 feet AGL
Weather: no significant weather observed at this time

METAR text: MKJP 180200Z 27004KT 9999 FEW022CB 29/23 Q1015
Conditions at: MKJP (KINGSTON/NORMAN , JM) observed 0200 UTC 18 August 2019
Temperature: 29.0°C (84°F)
Dewpoint: 23.0°C (73°F) [RH = 70%]
Pressure (altimeter): 29.97 inches Hg (1015.0 mb)
Winds: from the W (270 degrees) at 5 MPH (4 knots; 2.1 m/s)
Visibility: 6 or more miles (10+ km)
Ceiling: at least 12,000 feet AGL
Clouds: few clouds at 2200 feet AGL
Weather: no significant weather observed at this time

METAR text: MKJP 180100Z 36008KT 9999 FEW020 FEW022CB 29/23 Q1015
Conditions at: MKJP (KINGSTON/NORMAN , JM) observed 0100 UTC 18 August 2019
Temperature: 29.0°C (84°F)
Dewpoint: 23.0°C (73°F) [RH = 70%]
Pressure (altimeter): 29.97 inches Hg (1015.0 mb)
Winds: from the N (360 degrees) at 9 MPH (8 knots; 4.1 m/s)
Visibility: 6 or more miles (10+ km)
Ceiling: at least 12,000 feet AGL
Clouds: few clouds at 2000 feet AGL
few clouds at 2200 feet AGL
Weather: no significant weather observed at this time

METAR text: MKJP 180000Z 01009KT FEW020 FEW022CB 30/24 Q1014
Conditions at: MKJP (KINGSTON/NORMAN , JM) observed 0000 UTC 18 August 2019
Temperature: 30.0°C (86°F)
Dewpoint: 24.0°C (75°F) [RH = 70%]
Pressure (altimeter): 29.94 inches Hg (1014.0 mb)
Winds: from the N (10 degrees) at 10 MPH (9 knots; 4.6 m/s)
Visibility: missing
Ceiling: at least 12,000 feet AGL
Clouds: few clouds at 2000 feet AGL
few clouds at 2200 feet AGL
Weather: no significant weather observed at this time

METAR text: MKJP 172300Z 14014KT 9999 FEW018 SCT022CB 30/24 Q1014
Conditions at: MKJP (KINGSTON/NORMAN , JM) observed 2300 UTC 17 August 2019
Temperature: 30.0°C (86°F)
Dewpoint: 24.0°C (75°F) [RH = 70%]
Pressure (altimeter): 29.94 inches Hg (1014.0 mb)
Winds: from the SE (140 degrees) at 16 MPH (14 knots; 7.2 m/s)
Visibility: 6 or more miles (10+ km)
Ceiling: at least 12,000 feet AGL
Clouds: few clouds at 1800 feet AGL
scattered clouds at 2200 feet AGL
Weather: no significant weather observed at this time

METAR text: MKJP 172200Z 15017KT 9999 FEW020 SCT022CB 30/25 Q1013
Conditions at: MKJP (KINGSTON/NORMAN , JM) observed 2200 UTC 17 August 2019
Temperature: 30.0°C (86°F)
Dewpoint: 25.0°C (77°F) [RH = 75%]
Pressure (altimeter): 29.91 inches Hg (1013.0 mb)
Winds: from the SSE (150 degrees) at 20 MPH (17 knots; 8.7 m/s)
Visibility: 6 or more miles (10+ km)
Ceiling: at least 12,000 feet AGL
Clouds: few clouds at 2000 feet AGL
scattered clouds at 2200 feet AGL
Weather: no significant weather observed at this time

METAR text: MKJP 172100Z 16017KT 9999 FEW020 FEW022CB 30/25 Q1014
Conditions at: MKJP (KINGSTON/NORMAN , JM) observed 2100 UTC 17 August 2019
Temperature: 30.0°C (86°F)
Dewpoint: 25.0°C (77°F) [RH = 75%]
Pressure (altimeter): 29.94 inches Hg (1014.0 mb)
Winds: from the SSE (160 degrees) at 20 MPH (17 knots; 8.7 m/s)
Visibility: 6 or more miles (10+ km)
Ceiling: at least 12,000 feet AGL
Clouds: few clouds at 2000 feet AGL
few clouds at 2200 feet AGL
Weather: no significant weather observed at this time

METAR text: MKJP 172000Z 18016KT 9999 FEW020 FEW022CB 31/24 Q1014
Conditions at: MKJP (KINGSTON/NORMAN , JM) observed 2000 UTC 17 August 2019
Temperature: 31.0°C (88°F)
Dewpoint: 24.0°C (75°F) [RH = 66%]
Pressure (altimeter): 29.94 inches Hg (1014.0 mb)
Winds: from the S (180 degrees) at 18 MPH (16 knots; 8.2 m/s)
Visibility: 6 or more miles (10+ km)
Ceiling: at least 12,000 feet AGL
Clouds: few clouds at 2000 feet AGL
few clouds at 2200 feet AGL
Weather: no significant weather observed at this time

METAR text: MKJP 171900Z 18017KT 9999 FEW022 31/24 Q1015
Conditions at: MKJP (KINGSTON/NORMAN , JM) observed 1900 UTC 17 August 2019
Temperature: 31.0°C (88°F)
Dewpoint: 24.0°C (75°F) [RH = 66%]
Pressure (altimeter): 29.97 inches Hg (1015.0 mb)
Winds: from the S (180 degrees) at 20 MPH (17 knots; 8.7 m/s)
Visibility: 6 or more miles (10+ km)
Ceiling: at least 12,000 feet AGL
Clouds: few clouds at 2200 feet AGL
Weather: no significant weather observed at this time

METAR text: MKJP 171800Z 16013KT 9999 FEW022 32/25 Q1016
Conditions at: MKJP (KINGSTON/NORMAN , JM) observed 1800 UTC 17 August 2019
Temperature: 32.0°C (90°F)
Dewpoint: 25.0°C (77°F) [RH = 67%]
Pressure (altimeter): 30.00 inches Hg (1016.0 mb)
Winds: from the SSE (160 degrees) at 15 MPH (13 knots; 6.7 m/s)
Visibility: 6 or more miles (10+ km)
Ceiling: at least 12,000 feet AGL
Clouds: few clouds at 2200 feet AGL
Weather: no significant weather observed at this time

METAR text: MKJP 171700Z 15013KT 9999 FEW022 31/25 Q1016
Conditions at: MKJP (KINGSTON/NORMAN , JM) observed 1700 UTC 17 August 2019
Temperature: 31.0°C (88°F)
Dewpoint: 25.0°C (77°F) [RH = 71%]
Pressure (altimeter): 30.00 inches Hg (1016.0 mb)
Winds: from the SSE (150 degrees) at 15 MPH (13 knots; 6.7 m/s)
Visibility: 6 or more miles (10+ km)
Ceiling: at least 12,000 feet AGL
Clouds: few clouds at 2200 feet AGL
Weather: no significant weather observed at this time

METAR text: MKJP 171600Z 14007KT 9999 FEW022 32/24 Q1016
Conditions at: MKJP (KINGSTON/NORMAN , JM) observed 1600 UTC 17 August 2019
Temperature: 32.0°C (90°F)
Dewpoint: 24.0°C (75°F) [RH = 63%]
Pressure (altimeter): 30.00 inches Hg (1016.0 mb)
Winds: from the SE (140 degrees) at 8 MPH (7 knots; 3.6 m/s)
Visibility: 6 or more miles (10+ km)
Ceiling: at least 12,000 feet AGL
Clouds: few clouds at 2200 feet AGL
Weather: no significant weather observed at this time

METAR text: MKJP 171500Z 31005KT 9999 FEW022 32/21 Q1016
Conditions at: MKJP (KINGSTON/NORMAN , JM) observed 1500 UTC 17 August 2019
Temperature: 32.0°C (90°F)
Dewpoint: 21.0°C (70°F) [RH = 52%]
Pressure (altimeter): 30.00 inches Hg (1016.0 mb)
Winds: from the NW (310 degrees) at 6 MPH (5 knots; 2.6 m/s)
Visibility: 6 or more miles (10+ km)
Ceiling: at least 12,000 feet AGL
Clouds: few clouds at 2200 feet AGL
Weather: no significant weather observed at this time

METAR text: MKJP 171400Z 33006KT 9999 FEW022 30/22 Q1016
Conditions at: MKJP (KINGSTON/NORMAN , JM) observed 1400 UTC 17 August 2019
Temperature: 30.0°C (86°F)
Dewpoint: 22.0°C (72°F) [RH = 62%]
Pressure (altimeter): 30.00 inches Hg (1016.0 mb)
Winds: from the NNW (330 degrees) at 7 MPH (6 knots; 3.1 m/s)
Visibility: 6 or more miles (10+ km)
Ceiling: at least 12,000 feet AGL
Clouds: few clouds at 2200 feet AGL
Weather: no significant weather observed at this time

METAR text: MKJP 171300Z 36012KT 9999 FEW024 29/22 Q1016
Conditions at: MKJP (KINGSTON/NORMAN , JM) observed 1300 UTC 17 August 2019
Temperature: 29.0°C (84°F)
Dewpoint: 22.0°C (72°F) [RH = 66%]
Pressure (altimeter): 30.00 inches Hg (1016.0 mb)
Winds: from the N (360 degrees) at 14 MPH (12 knots; 6.2 m/s)
Visibility: 6 or more miles (10+ km)
Ceiling: at least 12,000 feet AGL
Clouds: few clouds at 2400 feet AGL
Weather: no significant weather observed at this time

Forecast for: MKJP (KINGSTON/NORMAN , JM)
Text: TAF MKJP 182315Z 1900/1924 14015KT 9999 FEW020 FEW022CB
Forecast period: 0000 to 0200 UTC 19 August 2019
Forecast type: FROM: standard forecast or significant change
Winds: from the SE (140 degrees) at 17 MPH (15 knots; 7.7 m/s)
Visibility: 6 or more miles 10+ km)
Ceiling: at least 12,000 feet AGL
Clouds: few clouds at 2000 feet AGL
few clouds at 2200 feet AGL
Weather: no significant weather forecast for this period
Text: BECMG 1902/1904 36008KT
Forecast period: 0200 to 1400 UTC 19 August 2019
Forecast type: BECOMING: Conditions expected to become as follows by 0400 UTC 19 August 2019
Winds: from the N (360 degrees) at 9 MPH (8 knots; 4.1 m/s)
Visibility: 6 or more miles 10+ km)
Ceiling: at least 12,000 feet AGL
Clouds: few clouds at 2000 feet AGL
few clouds at 2200 feet AGL
Weather: no significant weather forecast for this period
Text: BECMG 1914/1916 15022KT
Forecast period: 1400 UTC 19 August 2019 to 0000 UTC 20 August 2019
Forecast type: BECOMING: Conditions expected to become as follows by 1600 UTC 19 August 2019
Winds: from the SSE (150 degrees) at 25 MPH (22 knots; 11.3 m/s)
Visibility: 6 or more miles 10+ km)
Ceiling: at least 12,000 feet AGL
Clouds: few clouds at 2000 feet AGL
few clouds at 2200 feet AGL
Weather: no significant weather forecast for this period
Text: TEMPO 1916/1922 8000 TSRA FEW018 SCT020CB
Forecast period: 1600 to 2200 UTC 19 August 2019
Forecast type: TEMPORARY: The following changes expected for less than half the time period
Visibility: 5 miles (8 km)
Ceiling: at least 12,000 feet AGL
Clouds: few clouds at 1800 feet AGL
scattered clouds at 2000 feet AGL
Weather: TSRA  (rain associated with thunderstorm(s))